Terminal Aerodrome Forecast
Issued by NWS

Home | Current Version | Previous Version | Text Only | Print | Product List | Glossary On
Versions: 1 2 3 4 5 6 7 8 9 10 11 12 13 14 15 16 17
265
FTUS43 KDVN 201128
TAFCID
TAF
KCID 201128Z 2012/2112 16011KT P6SM BKN100 WS020/20035KT
     FM201400 19013G21KT P6SM SCT120
     FM201700 23011KT P6SM BKN040
     FM202200 36009KT P6SM BKN050 PROB30 2023/2104 5SM -TSRA
      BKN035CB
     FM210900 05005KT P6SM BKN025=

USA.gov is the U.S. government's official web portal to all federal, state and local government web resources and services.